createdAt,value
2017-12-31T00:00:38.903Z,4.80
2017-12-31T00:03:06.503Z,2.97
2017-12-31T00:05:35.503Z,3.13
2017-12-31T00:08:04.185Z,3.57
2017-12-31T00:10:31.782Z,2.27
2017-12-31T00:13:00.166Z,6.57
2017-12-31T00:15:27.753Z,2.97
2017-12-31T00:17:55.338Z,3.13
2017-12-31T00:20:22.949Z,3.87
2017-12-31T00:22:51.288Z,1.60
2017-12-31T00:25:18.900Z,2.30
2017-12-31T00:27:46.482Z,3.23
2017-12-31T00:30:14.099Z,2.90
2017-12-31T00:32:41.686Z,3.27
2017-12-31T00:35:09.265Z,2.30
2017-12-31T00:37:36.882Z,5.20
2017-12-31T00:40:05.187Z,7.03
2017-12-31T00:42:35.122Z,4.47
2017-12-31T00:45:03.838Z,4.80
2017-12-31T00:47:31.453Z,3.30
2017-12-31T00:49:59.802Z,4.03
2017-12-31T00:52:27.384Z,2.23
2017-12-31T00:54:55.032Z,2.73
2017-12-31T00:57:23.381Z,4.70
2017-12-31T00:59:50.990Z,7.93
2017-12-31T01:02:18.645Z,10.37
2017-12-31T01:04:46.278Z,7.97
2017-12-31T01:07:13.861Z,8.80
2017-12-31T01:09:41.445Z,3.70
2017-12-31T01:12:09.050Z,3.63
2017-12-31T01:14:36.616Z,4.93
2017-12-31T01:17:05.653Z,5.23
2017-12-31T01:19:34.413Z,4.53
2017-12-31T01:22:02.042Z,7.87
2017-12-31T01:24:29.622Z,3.27
2017-12-31T01:26:57.201Z,4.47
2017-12-31T01:29:24.799Z,5.00
2017-12-31T01:31:52.373Z,4.70
2017-12-31T01:34:19.989Z,6.20
2017-12-31T01:36:47.562Z,6.40
2017-12-31T01:39:15.181Z,4.63
2017-12-31T01:41:43.531Z,10.83
2017-12-31T01:44:11.117Z,4.67
2017-12-31T01:46:38.731Z,3.00
2017-12-31T01:49:06.327Z,5.53
2017-12-31T01:51:33.933Z,4.77
2017-12-31T01:54:02.349Z,6.90
2017-12-31T01:56:30.729Z,10.80
2017-12-31T01:58:58.315Z,11.20
2017-12-31T02:01:25.905Z,10.03
2017-12-31T02:03:53.513Z,7.50
2017-12-31T02:06:21.867Z,7.23
2017-12-31T02:08:49.475Z,5.47
2017-12-31T02:11:17.114Z,14.20
2017-12-31T02:13:44.726Z,6.63
2017-12-31T02:16:12.318Z,5.57
2017-12-31T02:18:39.901Z,5.70
2017-12-31T02:21:07.505Z,7.63
2017-12-31T02:23:35.078Z,3.37
2017-12-31T02:26:04.251Z,6.93
2017-12-31T02:28:31.908Z,8.47
2017-12-31T02:30:59.530Z,4.50
2017-12-31T02:33:27.111Z,3.77
2017-12-31T02:35:55.460Z,9.60
2017-12-31T02:38:23.059Z,5.63
2017-12-31T02:40:50.642Z,5.60
2017-12-31T02:43:18.249Z,13.63
2017-12-31T02:45:45.821Z,6.83
2017-12-31T02:48:14.226Z,4.40
2017-12-31T02:50:41.818Z,9.57
2017-12-31T02:53:09.401Z,4.57
2017-12-31T02:55:37.014Z,6.80
2017-12-31T02:58:05.412Z,7.70
2017-12-31T03:00:34.634Z,5.13
2017-12-31T03:03:02.226Z,5.07
2017-12-31T03:05:29.832Z,7.03
2017-12-31T03:07:58.180Z,8.00
2017-12-31T03:10:25.782Z,7.80
2017-12-31T03:12:53.411Z,4.70
2017-12-31T03:15:21.755Z,11.50
2017-12-31T03:17:49.355Z,11.63
2017-12-31T03:20:16.943Z,8.73
2017-12-31T03:22:44.559Z,9.80
2017-12-31T03:25:12.136Z,18.03
2017-12-31T03:27:39.721Z,11.80
2017-12-31T03:30:07.340Z,11.10
2017-12-31T03:32:35.876Z,12.10
2017-12-31T03:35:04.810Z,4.63
2017-12-31T03:37:32.403Z,9.67
2017-12-31T03:40:00.778Z,5.80
2017-12-31T03:42:28.367Z,12.50
2017-12-31T03:44:55.963Z,10.37
2017-12-31T03:47:24.330Z,8.93
2017-12-31T03:49:51.902Z,14.90
2017-12-31T03:52:19.545Z,13.07
2017-12-31T03:54:47.952Z,11.43
2017-12-31T03:57:16.304Z,12.00
2017-12-31T03:59:43.918Z,11.17
2017-12-31T04:02:11.507Z,13.67
2017-12-31T04:04:39.131Z,10.90
2017-12-31T04:07:06.726Z,11.10
2017-12-31T04:09:35.562Z,11.00
2017-12-31T04:12:03.625Z,7.60
2017-12-31T04:14:32.147Z,11.10
2017-12-31T04:16:59.770Z,13.03
2017-12-31T04:19:27.378Z,9.23
2017-12-31T04:21:55.747Z,7.30
2017-12-31T04:24:24.094Z,7.40
2017-12-31T04:26:51.716Z,18.07
2017-12-31T04:29:19.317Z,10.33
2017-12-31T04:31:46.906Z,4.47
2017-12-31T04:34:14.513Z,7.27
2017-12-31T04:36:42.089Z,11.70
2017-12-31T04:39:09.719Z,7.90
2017-12-31T04:41:37.302Z,6.30
2017-12-31T04:44:05.590Z,9.00
2017-12-31T04:46:34.123Z,8.80
2017-12-31T04:49:01.698Z,7.90
2017-12-31T04:51:29.307Z,7.93
2017-12-31T04:53:57.716Z,10.50
2017-12-31T04:56:26.102Z,8.30
2017-12-31T04:58:53.676Z,7.40
2017-12-31T05:01:21.298Z,10.80
2017-12-31T05:03:49.679Z,7.33
2017-12-31T05:06:17.274Z,14.10
2017-12-31T05:08:44.887Z,10.10
2017-12-31T05:11:12.478Z,10.37
2017-12-31T05:13:40.101Z,10.03
2017-12-31T05:16:07.688Z,6.83
2017-12-31T05:18:35.335Z,11.93
2017-12-31T05:21:04.568Z,6.20
2017-12-31T05:23:32.157Z,12.87
2017-12-31T05:25:59.764Z,12.20
2017-12-31T05:28:27.354Z,11.67
2017-12-31T05:30:54.969Z,11.27
2017-12-31T05:33:22.576Z,14.87
2017-12-31T05:35:50.927Z,12.73
2017-12-31T05:38:18.531Z,11.17
2017-12-31T05:40:46.138Z,10.37
2017-12-31T05:43:13.751Z,8.60
2017-12-31T05:45:42.099Z,7.77
2017-12-31T05:48:09.719Z,11.23
2017-12-31T05:50:37.314Z,8.10
2017-12-31T05:53:05.721Z,8.77
2017-12-31T05:55:34.490Z,12.67
2017-12-31T05:58:02.073Z,16.00
2017-12-31T06:00:29.678Z,17.07
2017-12-31T06:02:57.252Z,16.23
2017-12-31T06:05:24.865Z,12.70
2017-12-31T06:07:52.456Z,20.47
2017-12-31T06:10:20.051Z,14.07
2017-12-31T06:12:47.671Z,11.03
2017-12-31T06:15:15.348Z,11.63
2017-12-31T06:17:42.957Z,8.30
2017-12-31T06:20:11.331Z,13.20
2017-12-31T06:22:38.947Z,8.47
2017-12-31T06:25:06.536Z,8.97
2017-12-31T06:27:34.736Z,13.30
2017-12-31T06:30:02.365Z,14.37
2017-12-31T06:32:29.942Z,8.60
2017-12-31T06:34:57.549Z,8.53
2017-12-31T06:37:25.140Z,7.33
2017-12-31T06:39:52.750Z,17.73
2017-12-31T06:42:20.345Z,12.10
2017-12-31T06:44:47.932Z,10.27
2017-12-31T06:47:15.547Z,13.57
2017-12-31T06:49:43.172Z,12.77
2017-12-31T06:52:10.762Z,8.33
2017-12-31T06:54:38.356Z,11.17
2017-12-31T06:57:05.940Z,12.50
2017-12-31T06:59:34.867Z,6.43
2017-12-31T07:02:02.469Z,15.10
2017-12-31T07:04:30.084Z,16.03
2017-12-31T07:06:57.674Z,12.50
2017-12-31T07:09:25.304Z,11.33
2017-12-31T07:11:52.910Z,17.50
2017-12-31T07:14:20.508Z,11.90
2017-12-31T07:16:48.114Z,7.43
2017-12-31T07:19:15.690Z,6.93
2017-12-31T07:21:43.319Z,14.33
2017-12-31T07:24:11.676Z,10.63
2017-12-31T07:26:39.318Z,9.47
2017-12-31T07:29:07.689Z,9.37
2017-12-31T07:31:35.274Z,8.93
2017-12-31T07:34:03.409Z,11.13
2017-12-31T07:36:31.756Z,11.70
2017-12-31T07:38:59.570Z,6.63
2017-12-31T07:41:27.156Z,18.13
2017-12-31T07:43:54.738Z,10.60
2017-12-31T07:46:22.351Z,10.00
2017-12-31T07:48:49.936Z,10.10
2017-12-31T07:51:17.536Z,17.43
2017-12-31T07:53:46.109Z,8.17
2017-12-31T07:56:13.721Z,16.07
2017-12-31T07:58:42.574Z,15.97
2017-12-31T08:01:10.159Z,15.00
2017-12-31T08:03:37.809Z,17.33
2017-12-31T08:06:05.389Z,72.87
2017-12-31T08:08:32.986Z,21.83
2017-12-31T08:11:01.328Z,15.03
2017-12-31T08:13:29.129Z,18.97
2017-12-31T08:15:56.721Z,11.50
2017-12-31T08:18:25.298Z,14.40
2017-12-31T08:20:52.906Z,14.63
2017-12-31T08:23:20.480Z,10.83
2017-12-31T08:25:48.098Z,15.60
2017-12-31T08:28:15.672Z,12.87
2017-12-31T08:30:43.304Z,23.37
2017-12-31T08:33:11.851Z,21.67
2017-12-31T08:35:39.436Z,16.47
2017-12-31T08:38:07.046Z,13.77
2017-12-31T08:40:35.880Z,14.77
2017-12-31T08:43:04.716Z,17.27
2017-12-31T08:45:32.289Z,16.47
2017-12-31T08:47:59.941Z,17.23
2017-12-31T08:50:27.526Z,14.93
2017-12-31T08:52:55.116Z,15.57
2017-12-31T08:55:22.767Z,18.63
2017-12-31T08:57:50.351Z,14.00
2017-12-31T09:00:17.956Z,18.90
2017-12-31T09:02:45.554Z,17.97
2017-12-31T09:05:13.926Z,19.13
2017-12-31T09:07:41.777Z,14.53
2017-12-31T09:10:09.376Z,20.10
2017-12-31T09:12:37.230Z,16.40
2017-12-31T09:15:05.975Z,17.67
2017-12-31T09:17:34.638Z,21.30
2017-12-31T09:20:02.230Z,18.13
2017-12-31T09:22:29.856Z,23.30
2017-12-31T09:24:57.440Z,17.47
2017-12-31T09:27:25.071Z,12.40
2017-12-31T09:29:52.669Z,16.83
2017-12-31T09:32:20.292Z,20.40
2017-12-31T09:34:47.932Z,15.20
2017-12-31T09:37:15.796Z,14.47
2017-12-31T09:39:43.397Z,15.00
2017-12-31T09:42:11.019Z,18.23
2017-12-31T09:44:38.642Z,12.90
2017-12-31T09:47:06.859Z,16.17
2017-12-31T09:49:35.719Z,24.90
2017-12-31T09:52:04.403Z,17.00
2017-12-31T09:54:32.020Z,16.33
2017-12-31T09:56:59.776Z,11.90
2017-12-31T09:59:27.357Z,28.43
2017-12-31T10:01:55.003Z,22.80
2017-12-31T10:04:22.572Z,13.83
2017-12-31T10:06:50.209Z,25.20
2017-12-31T10:09:18.559Z,17.03
2017-12-31T10:11:46.179Z,20.93
2017-12-31T10:14:13.766Z,13.53
2017-12-31T10:16:41.348Z,9.57
2017-12-31T10:19:08.968Z,11.17
2017-12-31T10:21:36.617Z,11.07
2017-12-31T10:24:05.139Z,14.53
2017-12-31T10:26:34.727Z,11.63
2017-12-31T10:29:02.346Z,10.70
2017-12-31T10:31:29.937Z,10.90
2017-12-31T10:33:57.551Z,18.70
2017-12-31T10:36:25.931Z,17.13
2017-12-31T10:38:54.093Z,14.90
2017-12-31T10:41:21.746Z,8.33
2017-12-31T10:43:49.338Z,12.07
2017-12-31T10:46:17.724Z,10.60
2017-12-31T10:48:45.319Z,11.90
2017-12-31T10:51:12.902Z,11.10
2017-12-31T10:53:40.528Z,10.00
2017-12-31T10:56:08.102Z,6.90
2017-12-31T10:58:36.471Z,8.57
2017-12-31T11:01:04.049Z,6.60
2017-12-31T11:03:31.672Z,7.23
2017-12-31T11:06:00.036Z,7.70
2017-12-31T11:08:27.618Z,8.67
2017-12-31T11:10:55.227Z,21.50
2017-12-31T11:13:22.805Z,31.37
2017-12-31T11:15:50.427Z,13.07
2017-12-31T11:18:18.792Z,12.77
2017-12-31T11:20:46.413Z,9.77
2017-12-31T11:23:14.759Z,10.50
2017-12-31T11:25:42.371Z,7.70
2017-12-31T11:28:09.987Z,10.33
2017-12-31T11:30:37.583Z,9.50
2017-12-31T11:33:05.202Z,11.03
2017-12-31T11:35:33.811Z,7.77
2017-12-31T11:38:01.477Z,11.17
2017-12-31T11:40:29.075Z,5.23
2017-12-31T11:42:57.421Z,8.43
2017-12-31T11:45:25.067Z,6.80
2017-12-31T11:47:53.441Z,7.80
2017-12-31T11:50:21.074Z,9.73
2017-12-31T11:52:48.661Z,25.73
2017-12-31T11:55:16.310Z,5.60
2017-12-31T11:57:43.900Z,5.90
2017-12-31T12:00:11.487Z,5.03
2017-12-31T12:02:39.093Z,8.80
2017-12-31T12:05:07.458Z,8.23
2017-12-31T12:07:35.079Z,8.13
2017-12-31T12:10:03.871Z,6.23
2017-12-31T12:12:31.591Z,5.20
2017-12-31T12:14:59.192Z,4.40
2017-12-31T12:17:26.767Z,5.73
2017-12-31T12:19:54.386Z,7.97
2017-12-31T12:22:21.977Z,10.20
2017-12-31T12:24:49.590Z,5.97
2017-12-31T12:27:17.186Z,14.13
2017-12-31T12:29:44.805Z,8.90
2017-12-31T12:32:12.388Z,6.00
2017-12-31T12:34:39.999Z,7.83
2017-12-31T12:37:07.613Z,6.47
2017-12-31T12:39:35.228Z,6.03
2017-12-31T12:42:03.590Z,7.80
2017-12-31T12:44:31.396Z,11.70
2017-12-31T12:46:59.019Z,5.37
2017-12-31T12:49:26.619Z,7.03
2017-12-31T12:51:54.242Z,7.07
2017-12-31T12:54:21.870Z,6.17
2017-12-31T12:56:49.450Z,5.67
2017-12-31T12:59:17.057Z,5.73
2017-12-31T13:01:44.656Z,6.00
2017-12-31T13:04:12.278Z,7.60
2017-12-31T13:06:40.630Z,4.90
2017-12-31T13:09:08.211Z,4.17
2017-12-31T13:11:35.822Z,5.03
2017-12-31T13:14:05.062Z,5.93
2017-12-31T13:16:33.880Z,3.73
2017-12-31T13:19:01.590Z,7.27
2017-12-31T13:21:29.974Z,5.07
2017-12-31T13:23:57.554Z,5.37
2017-12-31T13:26:25.168Z,7.10
2017-12-31T13:28:53.537Z,8.57
2017-12-31T13:31:21.146Z,6.17
2017-12-31T13:33:48.789Z,4.30
2017-12-31T13:36:16.380Z,6.50
2017-12-31T13:38:44.003Z,5.07
2017-12-31T13:41:11.599Z,3.73
2017-12-31T13:43:39.178Z,4.40
2017-12-31T13:46:06.780Z,7.80
2017-12-31T13:48:35.523Z,6.07
2017-12-31T13:51:04.171Z,8.40
2017-12-31T13:53:31.767Z,2.70
2017-12-31T13:55:59.391Z,4.60
2017-12-31T13:58:27.746Z,6.20
2017-12-31T14:00:55.322Z,8.10
2017-12-31T14:03:22.946Z,7.30
2017-12-31T14:05:50.543Z,8.60
2017-12-31T14:08:18.164Z,6.27
2017-12-31T14:10:45.744Z,3.50
2017-12-31T14:13:14.086Z,7.33
2017-12-31T14:15:41.709Z,15.57
2017-12-31T14:18:10.098Z,11.97
2017-12-31T14:20:37.727Z,8.20
2017-12-31T14:23:06.125Z,11.20
2017-12-31T14:25:35.324Z,8.00
2017-12-31T14:28:02.975Z,15.97
2017-12-31T14:30:30.580Z,11.83
2017-12-31T14:32:58.214Z,10.30
2017-12-31T14:35:25.811Z,8.20
2017-12-31T14:37:53.459Z,7.50
2017-12-31T14:40:21.079Z,10.47
2017-12-31T14:42:48.674Z,3.23
2017-12-31T14:45:16.294Z,8.73
2017-12-31T14:47:43.877Z,5.47
2017-12-31T14:50:11.498Z,6.30
2017-12-31T14:52:39.086Z,7.80
2017-12-31T14:55:06.740Z,5.73
2017-12-31T14:57:35.480Z,7.30
2017-12-31T15:00:03.075Z,8.10
2017-12-31T15:02:30.713Z,6.17
2017-12-31T15:04:59.086Z,5.90
2017-12-31T15:07:26.746Z,5.70
2017-12-31T15:09:54.325Z,3.50
2017-12-31T15:12:21.961Z,2.47
2017-12-31T15:14:49.546Z,2.80
2017-12-31T15:17:17.130Z,4.33
2017-12-31T15:19:44.747Z,3.37
2017-12-31T15:22:12.343Z,2.83
2017-12-31T15:24:39.957Z,3.17
2017-12-31T15:27:07.536Z,2.63
2017-12-31T15:29:35.156Z,6.90
2017-12-31T15:32:03.525Z,4.00
2017-12-31T15:34:31.123Z,4.53
2017-12-31T15:36:58.761Z,3.40
2017-12-31T15:39:26.364Z,3.70
2017-12-31T15:41:54.766Z,9.20
2017-12-31T15:44:23.118Z,3.43
2017-12-31T15:46:50.735Z,3.33
2017-12-31T15:49:18.322Z,2.70
2017-12-31T15:51:46.489Z,5.20
2017-12-31T15:54:14.118Z,3.50
2017-12-31T15:56:41.732Z,3.33
2017-12-31T15:59:09.371Z,4.50
2017-12-31T16:01:36.964Z,5.03
2017-12-31T16:04:05.148Z,11.30
2017-12-31T16:06:33.811Z,9.67
2017-12-31T16:09:01.389Z,4.80
2017-12-31T16:11:29.006Z,3.50
2017-12-31T16:13:56.605Z,2.97
2017-12-31T16:16:25.031Z,6.83
2017-12-31T16:18:52.629Z,2.57
2017-12-31T16:21:20.210Z,2.17
2017-12-31T16:23:47.825Z,4.23
2017-12-31T16:26:15.423Z,5.10
2017-12-31T16:28:43.041Z,4.23
2017-12-31T16:31:10.662Z,3.30
2017-12-31T16:33:38.277Z,3.33
2017-12-31T16:36:05.870Z,2.57
2017-12-31T16:38:34.028Z,3.60
2017-12-31T16:41:01.642Z,2.77
2017-12-31T16:43:29.242Z,6.20
2017-12-31T16:45:56.864Z,2.53
2017-12-31T16:48:24.448Z,3.10
2017-12-31T16:50:52.068Z,2.63
2017-12-31T16:53:19.663Z,2.60
2017-12-31T16:55:47.255Z,3.63
2017-12-31T16:58:14.861Z,9.90
2017-12-31T17:00:42.452Z,5.50
2017-12-31T17:03:10.061Z,3.90
2017-12-31T17:05:37.642Z,7.50
2017-12-31T17:08:05.261Z,3.77
2017-12-31T17:10:33.581Z,5.27
2017-12-31T17:13:01.169Z,3.37
2017-12-31T17:15:28.783Z,3.80
2017-12-31T17:17:56.405Z,6.07
2017-12-31T17:20:24.014Z,5.00
2017-12-31T17:22:51.646Z,5.07
2017-12-31T17:25:19.253Z,2.70
2017-12-31T17:27:46.840Z,4.70
2017-12-31T17:30:14.434Z,4.60
2017-12-31T17:32:42.055Z,5.37
2017-12-31T17:35:09.645Z,3.20
2017-12-31T17:37:37.274Z,3.27
2017-12-31T17:40:05.538Z,5.40
2017-12-31T17:42:34.767Z,3.60
2017-12-31T17:45:06.718Z,5.43
2017-12-31T17:47:35.366Z,2.77
2017-12-31T17:50:03.463Z,3.00
2017-12-31T17:52:31.051Z,2.70
2017-12-31T17:54:58.673Z,2.53
2017-12-31T17:57:26.245Z,4.80
2017-12-31T17:59:53.832Z,5.20
2017-12-31T18:02:21.454Z,7.50
2017-12-31T18:04:49.038Z,9.60
2017-12-31T18:07:16.655Z,4.93
2017-12-31T18:09:45.010Z,5.70
2017-12-31T18:12:12.646Z,4.47
2017-12-31T18:14:41.005Z,3.57
2017-12-31T18:17:08.610Z,6.67
2017-12-31T18:19:36.278Z,4.73
2017-12-31T18:22:05.913Z,4.83
2017-12-31T18:24:34.953Z,3.27
2017-12-31T18:27:02.573Z,6.17
2017-12-31T18:29:30.955Z,6.23
2017-12-31T18:31:58.544Z,3.73
2017-12-31T18:34:26.134Z,7.00
2017-12-31T18:36:53.826Z,2.77
2017-12-31T18:39:21.389Z,2.90
2017-12-31T18:41:49.003Z,3.10
2017-12-31T18:44:17.349Z,3.20
2017-12-31T18:46:44.957Z,5.23
2017-12-31T18:49:12.540Z,3.30
2017-12-31T18:51:40.113Z,3.43
2017-12-31T18:54:07.734Z,2.83
2017-12-31T18:56:35.331Z,6.53
2017-12-31T18:59:03.672Z,3.50
2017-12-31T19:01:31.326Z,5.93
2017-12-31T19:03:58.947Z,6.73
2017-12-31T19:06:26.544Z,4.50
2017-12-31T19:08:54.127Z,2.40
2017-12-31T19:11:21.730Z,2.57
2017-12-31T19:13:49.322Z,3.37
2017-12-31T19:16:16.942Z,7.23
2017-12-31T19:18:44.522Z,3.10
2017-12-31T19:21:12.130Z,3.43
2017-12-31T19:23:40.529Z,2.90
2017-12-31T19:26:08.100Z,3.80
2017-12-31T19:28:35.701Z,4.20
2017-12-31T19:31:04.378Z,3.67
2017-12-31T19:33:31.986Z,3.67
2017-12-31T19:35:59.587Z,3.27
2017-12-31T19:38:27.206Z,3.33
2017-12-31T19:40:54.797Z,4.60
2017-12-31T19:43:22.389Z,4.83
2017-12-31T19:45:50.018Z,5.03
2017-12-31T19:48:17.654Z,5.53
2017-12-31T19:50:45.262Z,8.10
2017-12-31T19:53:12.873Z,3.97
2017-12-31T19:55:40.495Z,4.17
2017-12-31T19:58:08.846Z,6.50
2017-12-31T20:00:36.420Z,4.93
2017-12-31T20:03:04.042Z,6.10
2017-12-31T20:05:31.714Z,4.40
2017-12-31T20:07:59.393Z,3.33
2017-12-31T20:10:27.009Z,5.37
2017-12-31T20:12:54.617Z,4.23
2017-12-31T20:15:22.209Z,3.93
2017-12-31T20:17:49.809Z,4.13
2017-12-31T20:20:17.404Z,4.37
2017-12-31T20:22:45.019Z,4.10
2017-12-31T20:25:13.393Z,5.20
2017-12-31T20:27:41.014Z,3.73
2017-12-31T20:30:08.669Z,4.60
2017-12-31T20:32:36.298Z,5.10
2017-12-31T20:35:09.763Z,6.23
2017-12-31T20:37:37.411Z,5.13
2017-12-31T20:40:05.758Z,4.60
2017-12-31T20:42:34.346Z,6.00
2017-12-31T20:45:03.610Z,4.10
2017-12-31T20:47:31.202Z,4.03
2017-12-31T20:49:59.557Z,4.70
2017-12-31T20:52:27.170Z,3.53
2017-12-31T20:54:54.763Z,8.00
2017-12-31T20:57:22.377Z,4.60
2017-12-31T20:59:49.969Z,5.80
2017-12-31T21:02:17.540Z,7.30
2017-12-31T21:04:45.716Z,4.30
2017-12-31T21:07:14.074Z,4.23
2017-12-31T21:09:41.685Z,4.57
2017-12-31T21:12:10.037Z,5.40
2017-12-31T21:14:38.418Z,4.00
2017-12-31T21:17:06.010Z,4.63
2017-12-31T21:19:34.563Z,4.00
2017-12-31T21:22:02.169Z,5.57
2017-12-31T21:24:29.758Z,6.70
2017-12-31T21:26:57.360Z,7.80
2017-12-31T21:29:24.941Z,4.60
2017-12-31T21:31:52.545Z,3.20
2017-12-31T21:34:20.128Z,3.53
2017-12-31T21:36:48.477Z,3.73
2017-12-31T21:39:16.095Z,3.43
2017-12-31T21:41:43.664Z,5.03
2017-12-31T21:44:11.275Z,3.93
2017-12-31T21:46:38.902Z,2.80
2017-12-31T21:49:06.531Z,3.37
2017-12-31T21:51:35.075Z,3.67
2017-12-31T21:54:03.457Z,2.97
2017-12-31T21:56:31.079Z,4.27
2017-12-31T21:58:58.653Z,3.00
2017-12-31T22:01:26.222Z,4.50
2017-12-31T22:03:54.604Z,3.43
2017-12-31T22:06:23.358Z,3.47
2017-12-31T22:08:50.979Z,5.27
2017-12-31T22:11:19.332Z,4.80
2017-12-31T22:13:46.952Z,4.67
2017-12-31T22:16:14.534Z,4.80
2017-12-31T22:18:42.240Z,4.03
2017-12-31T22:21:09.858Z,4.03
2017-12-31T22:23:37.444Z,4.07
2017-12-31T22:26:05.055Z,4.27
2017-12-31T22:28:32.633Z,6.70
2017-12-31T22:31:01.124Z,4.57
2017-12-31T22:33:28.716Z,5.63
2017-12-31T22:35:57.098Z,4.37
2017-12-31T22:38:25.452Z,6.00
2017-12-31T22:40:53.802Z,4.00
2017-12-31T22:43:21.411Z,3.90
2017-12-31T22:45:49.010Z,6.30
2017-12-31T22:48:16.617Z,4.03
2017-12-31T22:50:44.209Z,7.40
2017-12-31T22:53:11.826Z,5.00
2017-12-31T22:55:39.401Z,10.13
2017-12-31T22:58:07.147Z,4.93
2017-12-31T23:00:35.326Z,4.97
2017-12-31T23:03:03.519Z,4.57
2017-12-31T23:05:31.131Z,3.37
2017-12-31T23:07:58.707Z,4.03
2017-12-31T23:10:26.350Z,3.83
2017-12-31T23:12:53.935Z,7.60
2017-12-31T23:15:22.307Z,4.10
2017-12-31T23:17:49.942Z,4.70
2017-12-31T23:20:17.551Z,7.37
2017-12-31T23:22:45.147Z,14.13
2017-12-31T23:25:12.763Z,8.60
2017-12-31T23:27:40.346Z,5.33
2017-12-31T23:30:08.696Z,5.60
2017-12-31T23:32:36.343Z,5.60
2017-12-31T23:35:05.770Z,6.63
2017-12-31T23:37:34.286Z,7.97
2017-12-31T23:40:01.941Z,5.97
2017-12-31T23:42:29.563Z,4.87
2017-12-31T23:44:57.153Z,4.57
2017-12-31T23:47:24.775Z,5.53
2017-12-31T23:49:52.369Z,5.50
2017-12-31T23:52:20.071Z,4.73
2017-12-31T23:54:47.695Z,5.60
2017-12-31T23:57:15.304Z,4.73
2017-12-31T23:59:42.925Z,5.67
